sensor_id;sensor_type;location;lat;lon;timestamp;P1;durP1;ratioP1;P2;durP2;ratioP2
54157;SDS011;40065;49.894;10.358;2023-05-07T00:04:04;4.20;;;2.28;;
54157;SDS011;40065;49.894;10.358;2023-05-07T00:09:07;3.28;;;1.60;;
54157;SDS011;40065;49.894;10.358;2023-05-07T00:14:09;1.92;;;1.20;;
54157;SDS011;40065;49.894;10.358;2023-05-07T00:19:11;3.47;;;2.00;;
54157;SDS011;40065;49.894;10.358;2023-05-07T00:24:12;3.85;;;2.20;;
54157;SDS011;40065;49.894;10.358;2023-05-07T00:29:14;5.03;;;2.10;;
54157;SDS011;40065;49.894;10.358;2023-05-07T00:34:16;2.42;;;1.52;;
54157;SDS011;40065;49.894;10.358;2023-05-07T00:39:18;4.57;;;2.00;;
54157;SDS011;40065;49.894;10.358;2023-05-07T00:44:20;3.95;;;1.73;;
54157;SDS011;40065;49.894;10.358;2023-05-07T00:49:22;6.82;;;1.90;;
54157;SDS011;40065;49.894;10.358;2023-05-07T00:54:29;2.42;;;1.90;;
54157;SDS011;40065;49.894;10.358;2023-05-07T00:59:32;3.90;;;1.90;;
54157;SDS011;40065;49.894;10.358;2023-05-07T01:04:34;3.00;;;2.33;;
54157;SDS011;40065;49.894;10.358;2023-05-07T01:09:37;3.65;;;2.30;;
54157;SDS011;40065;49.894;10.358;2023-05-07T01:14:39;4.38;;;2.38;;
54157;SDS011;40065;49.894;10.358;2023-05-07T01:19:41;3.28;;;2.60;;
54157;SDS011;40065;49.894;10.358;2023-05-07T01:24:43;3.70;;;2.55;;
54157;SDS011;40065;49.894;10.358;2023-05-07T01:29:47;5.55;;;2.75;;
54157;SDS011;40065;49.894;10.358;2023-05-07T01:34:49;4.57;;;3.10;;
54157;SDS011;40065;49.894;10.358;2023-05-07T01:39:52;4.40;;;2.80;;
54157;SDS011;40065;49.894;10.358;2023-05-07T01:44:54;4.30;;;2.80;;
54157;SDS011;40065;49.894;10.358;2023-05-07T01:49:57;3.50;;;2.65;;
54157;SDS011;40065;49.894;10.358;2023-05-07T01:54:59;4.00;;;2.75;;
54157;SDS011;40065;49.894;10.358;2023-05-07T02:00:01;3.70;;;2.83;;
54157;SDS011;40065;49.894;10.358;2023-05-07T02:10:20;3.47;;;2.80;;
54157;SDS011;40065;49.894;10.358;2023-05-07T02:15:22;4.03;;;3.20;;
54157;SDS011;40065;49.894;10.358;2023-05-07T02:20:24;6.47;;;3.13;;
54157;SDS011;40065;49.894;10.358;2023-05-07T02:25:26;5.38;;;3.80;;
54157;SDS011;40065;49.894;10.358;2023-05-07T02:30:28;4.57;;;3.88;;
54157;SDS011;40065;49.894;10.358;2023-05-07T02:35:32;5.30;;;4.03;;
54157;SDS011;40065;49.894;10.358;2023-05-07T02:40:33;4.82;;;3.80;;
54157;SDS011;40065;49.894;10.358;2023-05-07T02:45:39;5.22;;;4.05;;
54157;SDS011;40065;49.894;10.358;2023-05-07T02:50:42;6.55;;;4.78;;
54157;SDS011;40065;49.894;10.358;2023-05-07T02:55:46;5.78;;;4.35;;
54157;SDS011;40065;49.894;10.358;2023-05-07T03:00:48;6.35;;;4.25;;
54157;SDS011;40065;49.894;10.358;2023-05-07T03:05:59;5.20;;;4.47;;
54157;SDS011;40065;49.894;10.358;2023-05-07T03:11:02;6.93;;;4.43;;
54157;SDS011;40065;49.894;10.358;2023-05-07T03:16:04;5.60;;;3.42;;
54157;SDS011;40065;49.894;10.358;2023-05-07T03:21:06;4.72;;;3.50;;
54157;SDS011;40065;49.894;10.358;2023-05-07T03:26:08;4.15;;;3.55;;
54157;SDS011;40065;49.894;10.358;2023-05-07T03:31:11;5.60;;;4.35;;
54157;SDS011;40065;49.894;10.358;2023-05-07T03:36:13;6.00;;;4.53;;
54157;SDS011;40065;49.894;10.358;2023-05-07T03:41:15;6.43;;;4.35;;
54157;SDS011;40065;49.894;10.358;2023-05-07T03:46:19;6.40;;;4.70;;
54157;SDS011;40065;49.894;10.358;2023-05-07T03:51:21;7.15;;;5.38;;
54157;SDS011;40065;49.894;10.358;2023-05-07T03:56:23;7.25;;;5.10;;
54157;SDS011;40065;49.894;10.358;2023-05-07T04:01:29;5.93;;;4.85;;
54157;SDS011;40065;49.894;10.358;2023-05-07T04:06:31;6.03;;;4.35;;
54157;SDS011;40065;49.894;10.358;2023-05-07T04:11:34;6.05;;;5.25;;
54157;SDS011;40065;49.894;10.358;2023-05-07T04:16:37;4.70;;;3.65;;
54157;SDS011;40065;49.894;10.358;2023-05-07T04:21:39;4.68;;;4.10;;
54157;SDS011;40065;49.894;10.358;2023-05-07T04:26:41;7.45;;;5.25;;
54157;SDS011;40065;49.894;10.358;2023-05-07T04:31:44;6.90;;;5.22;;
54157;SDS011;40065;49.894;10.358;2023-05-07T04:36:46;8.00;;;5.28;;
54157;SDS011;40065;49.894;10.358;2023-05-07T04:41:49;6.93;;;6.00;;
54157;SDS011;40065;49.894;10.358;2023-05-07T04:46:51;5.30;;;4.40;;
54157;SDS011;40065;49.894;10.358;2023-05-07T04:51:53;7.45;;;5.18;;
54157;SDS011;40065;49.894;10.358;2023-05-07T04:56:57;7.50;;;5.53;;
54157;SDS011;40065;49.894;10.358;2023-05-07T05:01:59;21.20;;;12.43;;
54157;SDS011;40065;49.894;10.358;2023-05-07T05:07:02;9.82;;;7.40;;
54157;SDS011;40065;49.894;10.358;2023-05-07T05:12:07;9.02;;;5.43;;
54157;SDS011;40065;49.894;10.358;2023-05-07T05:17:11;7.63;;;5.90;;
54157;SDS011;40065;49.894;10.358;2023-05-07T05:22:13;7.53;;;5.88;;
54157;SDS011;40065;49.894;10.358;2023-05-07T05:27:15;6.75;;;5.60;;
54157;SDS011;40065;49.894;10.358;2023-05-07T05:32:17;6.90;;;5.50;;
54157;SDS011;40065;49.894;10.358;2023-05-07T05:37:19;7.65;;;5.60;;
54157;SDS011;40065;49.894;10.358;2023-05-07T05:42:22;9.10;;;6.10;;
54157;SDS011;40065;49.894;10.358;2023-05-07T05:47:24;8.20;;;5.95;;
54157;SDS011;40065;49.894;10.358;2023-05-07T05:52:28;7.63;;;5.57;;
54157;SDS011;40065;49.894;10.358;2023-05-07T05:57:31;7.28;;;5.70;;
54157;SDS011;40065;49.894;10.358;2023-05-07T06:02:33;9.82;;;6.65;;
54157;SDS011;40065;49.894;10.358;2023-05-07T06:07:36;8.13;;;6.35;;
54157;SDS011;40065;49.894;10.358;2023-05-07T06:12:38;7.53;;;6.10;;
54157;SDS011;40065;49.894;10.358;2023-05-07T06:17:41;9.43;;;6.20;;
54157;SDS011;40065;49.894;10.358;2023-05-07T06:22:44;7.30;;;5.85;;
54157;SDS011;40065;49.894;10.358;2023-05-07T06:27:48;8.50;;;6.57;;
54157;SDS011;40065;49.894;10.358;2023-05-07T06:32:49;7.50;;;6.13;;
54157;SDS011;40065;49.894;10.358;2023-05-07T06:37:52;8.05;;;6.35;;
54157;SDS011;40065;49.894;10.358;2023-05-07T06:42:57;8.07;;;6.20;;
54157;SDS011;40065;49.894;10.358;2023-05-07T06:48:10;7.13;;;6.03;;
54157;SDS011;40065;49.894;10.358;2023-05-07T06:53:22;7.70;;;5.30;;
54157;SDS011;40065;49.894;10.358;2023-05-07T06:58:25;8.82;;;6.72;;
54157;SDS011;40065;49.894;10.358;2023-05-07T07:03:27;7.10;;;6.28;;
54157;SDS011;40065;49.894;10.358;2023-05-07T07:08:30;7.75;;;6.63;;
54157;SDS011;40065;49.894;10.358;2023-05-07T07:13:32;7.97;;;6.45;;
54157;SDS011;40065;49.894;10.358;2023-05-07T07:18:34;16.95;;;6.82;;
54157;SDS011;40065;49.894;10.358;2023-05-07T07:23:38;9.25;;;7.38;;
54157;SDS011;40065;49.894;10.358;2023-05-07T07:28:43;23.95;;;7.85;;
54157;SDS011;40065;49.894;10.358;2023-05-07T07:33:52;8.93;;;7.07;;
54157;SDS011;40065;49.894;10.358;2023-05-07T07:38:54;9.80;;;6.82;;
54157;SDS011;40065;49.894;10.358;2023-05-07T07:43:56;11.93;;;7.38;;
54157;SDS011;40065;49.894;10.358;2023-05-07T07:48:58;7.05;;;5.80;;
54157;SDS011;40065;49.894;10.358;2023-05-07T07:54:01;6.90;;;5.90;;
54157;SDS011;40065;49.894;10.358;2023-05-07T07:59:05;9.52;;;6.00;;
54157;SDS011;40065;49.894;10.358;2023-05-07T08:04:11;9.07;;;5.93;;
54157;SDS011;40065;49.894;10.358;2023-05-07T08:09:15;8.00;;;5.65;;
54157;SDS011;40065;49.894;10.358;2023-05-07T08:14:18;7.90;;;5.67;;
54157;SDS011;40065;49.894;10.358;2023-05-07T08:19:22;6.22;;;5.57;;
54157;SDS011;40065;49.894;10.358;2023-05-07T08:24:24;6.13;;;5.53;;
54157;SDS011;40065;49.894;10.358;2023-05-07T08:29:27;7.05;;;5.82;;
54157;SDS011;40065;49.894;10.358;2023-05-07T08:34:29;6.60;;;5.22;;
54157;SDS011;40065;49.894;10.358;2023-05-07T08:39:32;8.20;;;5.15;;
54157;SDS011;40065;49.894;10.358;2023-05-07T08:44:34;5.60;;;4.93;;
54157;SDS011;40065;49.894;10.358;2023-05-07T08:49:36;6.82;;;4.82;;
54157;SDS011;40065;49.894;10.358;2023-05-07T08:54:41;6.47;;;5.00;;
54157;SDS011;40065;49.894;10.358;2023-05-07T08:59:44;6.05;;;5.07;;
54157;SDS011;40065;49.894;10.358;2023-05-07T09:04:46;6.10;;;4.93;;
54157;SDS011;40065;49.894;10.358;2023-05-07T09:09:48;7.95;;;5.88;;
54157;SDS011;40065;49.894;10.358;2023-05-07T09:14:50;5.70;;;5.10;;
54157;SDS011;40065;49.894;10.358;2023-05-07T09:19:52;6.80;;;5.32;;
54157;SDS011;40065;49.894;10.358;2023-05-07T09:24:54;9.45;;;5.40;;
54157;SDS011;40065;49.894;10.358;2023-05-07T09:30:02;4.95;;;4.43;;
54157;SDS011;40065;49.894;10.358;2023-05-07T09:35:06;6.18;;;4.97;;
54157;SDS011;40065;49.894;10.358;2023-05-07T09:40:23;8.43;;;4.27;;
54157;SDS011;40065;49.894;10.358;2023-05-07T09:45:27;7.15;;;4.97;;
54157;SDS011;40065;49.894;10.358;2023-05-07T09:50:32;6.00;;;5.00;;
54157;SDS011;40065;49.894;10.358;2023-05-07T09:55:38;5.10;;;4.57;;
54157;SDS011;40065;49.894;10.358;2023-05-07T10:00:41;5.15;;;4.28;;
54157;SDS011;40065;49.894;10.358;2023-05-07T10:05:47;4.90;;;3.88;;
54157;SDS011;40065;49.894;10.358;2023-05-07T10:10:51;7.60;;;4.65;;
54157;SDS011;40065;49.894;10.358;2023-05-07T10:15:56;7.65;;;4.13;;
54157;SDS011;40065;49.894;10.358;2023-05-07T10:21:13;5.57;;;4.10;;
54157;SDS011;40065;49.894;10.358;2023-05-07T10:26:20;5.75;;;4.20;;
54157;SDS011;40065;49.894;10.358;2023-05-07T10:31:49;6.50;;;4.32;;
54157;SDS011;40065;49.894;10.358;2023-05-07T10:37:04;4.95;;;3.60;;
54157;SDS011;40065;49.894;10.358;2023-05-07T10:42:08;6.32;;;3.50;;
54157;SDS011;40065;49.894;10.358;2023-05-07T10:47:19;3.95;;;3.40;;
54157;SDS011;40065;49.894;10.358;2023-05-07T10:52:25;4.80;;;3.22;;
54157;SDS011;40065;49.894;10.358;2023-05-07T10:57:53;4.25;;;3.67;;
54157;SDS011;40065;49.894;10.358;2023-05-07T11:03:04;5.80;;;3.20;;
54157;SDS011;40065;49.894;10.358;2023-05-07T11:08:15;4.10;;;3.10;;
54157;SDS011;40065;49.894;10.358;2023-05-07T11:13:48;3.10;;;2.70;;
54157;SDS011;40065;49.894;10.358;2023-05-07T11:18:59;5.30;;;2.90;;
54157;SDS011;40065;49.894;10.358;2023-05-07T11:24:08;5.43;;;3.15;;
54157;SDS011;40065;49.894;10.358;2023-05-07T11:29:21;5.22;;;3.20;;
54157;SDS011;40065;49.894;10.358;2023-05-07T11:34:28;4.60;;;2.80;;
54157;SDS011;40065;49.894;10.358;2023-05-07T11:39:32;3.60;;;2.55;;
54157;SDS011;40065;49.894;10.358;2023-05-07T11:44:44;4.93;;;2.90;;
54157;SDS011;40065;49.894;10.358;2023-05-07T11:49:47;3.83;;;2.80;;
54157;SDS011;40065;49.894;10.358;2023-05-07T12:00:02;4.32;;;2.78;;
54157;SDS011;40065;49.894;10.358;2023-05-07T12:05:15;3.03;;;2.40;;
54157;SDS011;40065;49.894;10.358;2023-05-07T12:10:17;4.75;;;2.53;;
54157;SDS011;40065;49.894;10.358;2023-05-07T12:15:24;3.70;;;2.50;;
54157;SDS011;40065;49.894;10.358;2023-05-07T12:20:26;3.67;;;2.53;;
54157;SDS011;40065;49.894;10.358;2023-05-07T12:25:31;2.88;;;2.00;;
54157;SDS011;40065;49.894;10.358;2023-05-07T12:30:38;4.88;;;2.28;;
54157;SDS011;40065;49.894;10.358;2023-05-07T12:35:40;3.28;;;1.92;;
54157;SDS011;40065;49.894;10.358;2023-05-07T12:40:43;2.85;;;2.00;;
54157;SDS011;40065;49.894;10.358;2023-05-07T12:45:47;3.55;;;2.08;;
54157;SDS011;40065;49.894;10.358;2023-05-07T12:50:51;2.45;;;2.00;;
54157;SDS011;40065;49.894;10.358;2023-05-07T12:55:55;3.10;;;1.80;;
54157;SDS011;40065;49.894;10.358;2023-05-07T13:00:58;2.97;;;2.28;;
54157;SDS011;40065;49.894;10.358;2023-05-07T13:06:02;3.63;;;2.30;;
54157;SDS011;40065;49.894;10.358;2023-05-07T13:11:06;2.80;;;2.03;;
54157;SDS011;40065;49.894;10.358;2023-05-07T13:16:10;3.20;;;2.30;;
54157;SDS011;40065;49.894;10.358;2023-05-07T13:21:13;2.80;;;2.15;;
54157;SDS011;40065;49.894;10.358;2023-05-07T13:26:14;2.53;;;2.00;;
54157;SDS011;40065;49.894;10.358;2023-05-07T13:31:27;3.00;;;1.88;;
54157;SDS011;40065;49.894;10.358;2023-05-07T13:36:29;2.33;;;2.00;;
54157;SDS011;40065;49.894;10.358;2023-05-07T13:41:34;3.83;;;2.00;;
54157;SDS011;40065;49.894;10.358;2023-05-07T13:46:35;2.40;;;1.70;;
54157;SDS011;40065;49.894;10.358;2023-05-07T13:51:37;3.25;;;2.13;;
54157;SDS011;40065;49.894;10.358;2023-05-07T13:56:39;3.33;;;2.30;;
54157;SDS011;40065;49.894;10.358;2023-05-07T14:01:41;4.82;;;2.83;;
54157;SDS011;40065;49.894;10.358;2023-05-07T14:06:43;4.78;;;2.70;;
54157;SDS011;40065;49.894;10.358;2023-05-07T14:11:45;3.03;;;2.15;;
54157;SDS011;40065;49.894;10.358;2023-05-07T14:16:48;3.25;;;2.45;;
54157;SDS011;40065;49.894;10.358;2023-05-07T14:21:51;3.95;;;2.78;;
54157;SDS011;40065;49.894;10.358;2023-05-07T14:26:53;4.07;;;2.78;;
54157;SDS011;40065;49.894;10.358;2023-05-07T14:31:55;3.65;;;2.42;;
54157;SDS011;40065;49.894;10.358;2023-05-07T14:36:57;5.97;;;2.53;;
54157;SDS011;40065;49.894;10.358;2023-05-07T14:41:59;3.00;;;2.40;;
54157;SDS011;40065;49.894;10.358;2023-05-07T14:47:01;3.70;;;2.75;;
54157;SDS011;40065;49.894;10.358;2023-05-07T14:52:03;5.00;;;2.70;;
54157;SDS011;40065;49.894;10.358;2023-05-07T14:57:08;3.53;;;2.85;;
54157;SDS011;40065;49.894;10.358;2023-05-07T15:02:11;5.63;;;3.13;;
54157;SDS011;40065;49.894;10.358;2023-05-07T15:07:14;4.10;;;3.10;;
54157;SDS011;40065;49.894;10.358;2023-05-07T15:12:16;3.07;;;2.77;;
54157;SDS011;40065;49.894;10.358;2023-05-07T15:17:18;4.50;;;3.35;;
54157;SDS011;40065;49.894;10.358;2023-05-07T15:22:20;4.63;;;2.80;;
54157;SDS011;40065;49.894;10.358;2023-05-07T15:27:23;4.00;;;2.95;;
54157;SDS011;40065;49.894;10.358;2023-05-07T15:32:24;3.78;;;2.72;;
54157;SDS011;40065;49.894;10.358;2023-05-07T15:37:26;3.50;;;3.00;;
54157;SDS011;40065;49.894;10.358;2023-05-07T15:42:28;3.10;;;2.80;;
54157;SDS011;40065;49.894;10.358;2023-05-07T15:47:30;4.13;;;3.25;;
54157;SDS011;40065;49.894;10.358;2023-05-07T15:52:35;3.50;;;3.03;;
54157;SDS011;40065;49.894;10.358;2023-05-07T15:57:37;5.72;;;3.28;;
54157;SDS011;40065;49.894;10.358;2023-05-07T16:02:39;3.90;;;2.90;;
54157;SDS011;40065;49.894;10.358;2023-05-07T16:07:41;3.95;;;2.95;;
54157;SDS011;40065;49.894;10.358;2023-05-07T16:12:44;4.60;;;3.13;;
54157;SDS011;40065;49.894;10.358;2023-05-07T16:17:46;4.60;;;2.97;;
54157;SDS011;40065;49.894;10.358;2023-05-07T16:22:49;5.55;;;2.95;;
54157;SDS011;40065;49.894;10.358;2023-05-07T16:27:52;4.65;;;2.95;;
54157;SDS011;40065;49.894;10.358;2023-05-07T16:32:54;3.70;;;2.58;;
54157;SDS011;40065;49.894;10.358;2023-05-07T16:37:56;3.92;;;2.90;;
54157;SDS011;40065;49.894;10.358;2023-05-07T16:42:58;4.55;;;2.63;;
54157;SDS011;40065;49.894;10.358;2023-05-07T16:48:00;3.72;;;2.60;;
54157;SDS011;40065;49.894;10.358;2023-05-07T16:53:04;4.25;;;2.83;;
54157;SDS011;40065;49.894;10.358;2023-05-07T16:58:08;7.70;;;3.60;;
54157;SDS011;40065;49.894;10.358;2023-05-07T17:03:11;6.05;;;3.50;;
54157;SDS011;40065;49.894;10.358;2023-05-07T17:08:13;5.07;;;3.95;;
54157;SDS011;40065;49.894;10.358;2023-05-07T17:13:15;5.22;;;3.67;;
54157;SDS011;40065;49.894;10.358;2023-05-07T17:18:17;6.38;;;3.55;;
54157;SDS011;40065;49.894;10.358;2023-05-07T17:23:19;4.18;;;3.38;;
54157;SDS011;40065;49.894;10.358;2023-05-07T17:28:21;4.25;;;3.30;;
54157;SDS011;40065;49.894;10.358;2023-05-07T17:33:22;4.80;;;3.40;;
54157;SDS011;40065;49.894;10.358;2023-05-07T17:38:24;4.97;;;3.20;;
54157;SDS011;40065;49.894;10.358;2023-05-07T17:43:26;10.00;;;4.22;;
54157;SDS011;40065;49.894;10.358;2023-05-07T17:48:28;4.50;;;3.63;;
54157;SDS011;40065;49.894;10.358;2023-05-07T17:53:30;5.40;;;3.78;;
54157;SDS011;40065;49.894;10.358;2023-05-07T17:58:31;5.07;;;3.83;;
54157;SDS011;40065;49.894;10.358;2023-05-07T18:03:41;4.95;;;3.60;;
54157;SDS011;40065;49.894;10.358;2023-05-07T18:08:44;6.70;;;3.53;;
54157;SDS011;40065;49.894;10.358;2023-05-07T18:13:46;4.70;;;3.50;;
54157;SDS011;40065;49.894;10.358;2023-05-07T18:18:48;4.90;;;3.80;;
54157;SDS011;40065;49.894;10.358;2023-05-07T18:23:49;4.30;;;3.38;;
54157;SDS011;40065;49.894;10.358;2023-05-07T18:28:51;4.65;;;3.35;;
54157;SDS011;40065;49.894;10.358;2023-05-07T18:33:54;5.03;;;3.75;;
54157;SDS011;40065;49.894;10.358;2023-05-07T18:38:56;5.60;;;3.70;;
54157;SDS011;40065;49.894;10.358;2023-05-07T18:43:58;4.60;;;3.63;;
54157;SDS011;40065;49.894;10.358;2023-05-07T18:49:00;4.35;;;3.28;;
54157;SDS011;40065;49.894;10.358;2023-05-07T18:54:01;4.13;;;3.30;;
54157;SDS011;40065;49.894;10.358;2023-05-07T18:59:03;6.95;;;3.38;;
54157;SDS011;40065;49.894;10.358;2023-05-07T19:04:05;5.03;;;3.45;;
54157;SDS011;40065;49.894;10.358;2023-05-07T19:09:07;4.72;;;3.47;;
54157;SDS011;40065;49.894;10.358;2023-05-07T19:14:09;5.95;;;3.45;;
54157;SDS011;40065;49.894;10.358;2023-05-07T19:19:11;5.00;;;4.10;;
54157;SDS011;40065;49.894;10.358;2023-05-07T19:24:13;5.68;;;4.00;;
54157;SDS011;40065;49.894;10.358;2023-05-07T19:29:15;5.25;;;4.00;;
54157;SDS011;40065;49.894;10.358;2023-05-07T19:34:18;4.88;;;3.70;;
54157;SDS011;40065;49.894;10.358;2023-05-07T19:39:20;4.47;;;3.40;;
54157;SDS011;40065;49.894;10.358;2023-05-07T19:44:22;5.57;;;3.67;;
54157;SDS011;40065;49.894;10.358;2023-05-07T19:49:25;5.03;;;3.60;;
54157;SDS011;40065;49.894;10.358;2023-05-07T19:54:27;5.53;;;3.13;;
54157;SDS011;40065;49.894;10.358;2023-05-07T19:59:28;4.03;;;3.17;;
54157;SDS011;40065;49.894;10.358;2023-05-07T20:04:30;4.93;;;3.50;;
54157;SDS011;40065;49.894;10.358;2023-05-07T20:09:37;4.50;;;3.35;;
54157;SDS011;40065;49.894;10.358;2023-05-07T20:14:39;4.50;;;3.30;;
54157;SDS011;40065;49.894;10.358;2023-05-07T20:19:41;3.75;;;3.00;;
54157;SDS011;40065;49.894;10.358;2023-05-07T20:24:43;5.00;;;3.75;;
54157;SDS011;40065;49.894;10.358;2023-05-07T20:29:45;4.30;;;3.13;;
54157;SDS011;40065;49.894;10.358;2023-05-07T20:34:47;4.82;;;3.67;;
54157;SDS011;40065;49.894;10.358;2023-05-07T20:39:48;5.00;;;3.47;;
54157;SDS011;40065;49.894;10.358;2023-05-07T20:44:50;4.10;;;3.30;;
54157;SDS011;40065;49.894;10.358;2023-05-07T20:49:52;4.63;;;3.30;;
54157;SDS011;40065;49.894;10.358;2023-05-07T20:54:54;4.68;;;3.33;;
54157;SDS011;40065;49.894;10.358;2023-05-07T20:59:56;4.75;;;3.78;;
54157;SDS011;40065;49.894;10.358;2023-05-07T21:04:58;4.57;;;3.50;;
54157;SDS011;40065;49.894;10.358;2023-05-07T21:10:00;4.57;;;3.63;;
54157;SDS011;40065;49.894;10.358;2023-05-07T21:15:01;5.25;;;3.50;;
54157;SDS011;40065;49.894;10.358;2023-05-07T21:20:04;5.13;;;3.78;;
54157;SDS011;40065;49.894;10.358;2023-05-07T21:25:06;6.47;;;3.88;;
54157;SDS011;40065;49.894;10.358;2023-05-07T21:35:13;5.82;;;4.22;;
54157;SDS011;40065;49.894;10.358;2023-05-07T21:40:16;5.75;;;4.28;;
54157;SDS011;40065;49.894;10.358;2023-05-07T21:45:17;6.32;;;4.38;;
54157;SDS011;40065;49.894;10.358;2023-05-07T21:50:19;4.60;;;3.70;;
54157;SDS011;40065;49.894;10.358;2023-05-07T21:55:22;5.18;;;4.15;;
54157;SDS011;40065;49.894;10.358;2023-05-07T22:00:24;6.30;;;4.57;;
54157;SDS011;40065;49.894;10.358;2023-05-07T22:05:26;5.60;;;4.75;;
54157;SDS011;40065;49.894;10.358;2023-05-07T22:10:28;5.55;;;4.80;;
54157;SDS011;40065;49.894;10.358;2023-05-07T22:15:30;6.25;;;4.47;;
54157;SDS011;40065;49.894;10.358;2023-05-07T22:20:37;5.75;;;4.45;;
54157;SDS011;40065;49.894;10.358;2023-05-07T22:25:39;6.00;;;4.93;;
54157;SDS011;40065;49.894;10.358;2023-05-07T22:30:41;6.63;;;4.93;;
54157;SDS011;40065;49.894;10.358;2023-05-07T22:35:43;5.45;;;4.50;;
54157;SDS011;40065;49.894;10.358;2023-05-07T22:40:45;6.18;;;4.38;;
54157;SDS011;40065;49.894;10.358;2023-05-07T22:45:46;5.35;;;4.20;;
54157;SDS011;40065;49.894;10.358;2023-05-07T22:50:48;6.90;;;4.72;;
54157;SDS011;40065;49.894;10.358;2023-05-07T22:55:50;5.85;;;5.10;;
54157;SDS011;40065;49.894;10.358;2023-05-07T23:00:52;6.65;;;4.55;;
54157;SDS011;40065;49.894;10.358;2023-05-07T23:05:54;5.45;;;4.50;;
54157;SDS011;40065;49.894;10.358;2023-05-07T23:10:56;8.20;;;5.18;;
54157;SDS011;40065;49.894;10.358;2023-05-07T23:15:58;6.70;;;5.20;;
54157;SDS011;40065;49.894;10.358;2023-05-07T23:20:59;4.95;;;3.97;;
54157;SDS011;40065;49.894;10.358;2023-05-07T23:26:01;6.00;;;4.60;;
54157;SDS011;40065;49.894;10.358;2023-05-07T23:31:05;6.20;;;4.82;;
54157;SDS011;40065;49.894;10.358;2023-05-07T23:36:08;5.68;;;4.63;;
54157;SDS011;40065;49.894;10.358;2023-05-07T23:41:10;4.65;;;3.97;;
54157;SDS011;40065;49.894;10.358;2023-05-07T23:46:11;6.20;;;4.93;;
54157;SDS011;40065;49.894;10.358;2023-05-07T23:51:13;6.43;;;4.60;;
54157;SDS011;40065;49.894;10.358;2023-05-07T23:56:15;7.07;;;5.30;;
